Time;durP1;ratioP1;P1;durP2;ratioP2;P2;SDS_P1;SDS_P2;PMS_P1;PMS_P2;Temp;Humidity;BMP_temperature;BMP_pressure;BME280_temperature;BME280_humidity;BME280_pressure;Samples;Min_cycle;Max_cycle;Signal;HPM_P1;HPM_P2
2022/10/27 00:00:52;;;;;;;10.70;7.00;;;;;;;10.06;98.28;100012.17;106933;1297;22993;-63
2022/10/27 00:03:18;;;;;;;;;;;;;;;10.06;98.26;100014.27;106896;1298;22383;-63
2022/10/27 00:05:46;;;;;;;15.80;7.60;;;;;;;10.08;98.40;100017.45;106981;1290;22107;-63
2022/10/27 00:08:17;;;;;;;15.40;7.10;;;;;;;10.08;98.29;100022.08;106965;1284;22241;-63
2022/10/27 00:10:44;;;;;;;16.00;8.10;;;;;;;10.08;98.38;100019.90;106923;1299;22187;-63
2022/10/27 00:13:12;;;;;;;15.40;7.30;;;;;;;10.09;98.40;100020.84;106933;1299;22132;-63
2022/10/27 00:15:39;;;;;;;13.90;7.00;;;;;;;10.10;98.46;100025.00;106917;1299;22843;-63
2022/10/27 00:18:09;;;;;;;12.50;7.60;;;;;;;10.12;98.24;100018.52;106977;1292;22142;-63
2022/10/27 00:20:36;;;;;;;11.90;7.00;;;;;;;10.11;98.16;100023.70;106990;1299;22258;-63
2022/10/27 00:23:03;;;;;;;;;;;;;;;10.11;98.29;100022.70;106997;1299;22354;-64
2022/10/27 00:25:29;;;;;;;16.00;6.90;;;;;;;10.08;98.12;100025.67;106914;1291;22284;-63
2022/10/27 00:27:56;;;;;;;;;;;;;;;10.07;98.24;100025.22;106987;1300;22545;-63
2022/10/27 00:30:23;;;;;;;13.30;7.30;;;;;;;10.07;98.22;100026.27;106986;1279;22121;-63
2022/10/27 00:32:49;;;;;;;;;;;;;;;10.07;98.17;100033.98;106958;1299;22393;-63
2022/10/27 00:35:17;;;;;;;15.40;8.50;;;;;;;10.08;98.01;100033.34;106997;1299;22112;-63
2022/10/27 00:37:43;;;;;;;;;;;;;;;10.07;98.09;100036.83;106971;1299;22346;-63
2022/10/27 00:40:10;;;;;;;19.90;8.10;;;;;;;10.06;98.08;100037.02;107018;1299;22962;-63
2022/10/27 00:42:37;;;;;;;21.10;6.90;;;;;;;10.06;98.05;100038.27;107013;1299;22210;-63
2022/10/27 00:45:04;;;;;;;;;;;;;;;10.07;98.18;100037.45;107035;1284;22439;-63
2022/10/27 00:47:33;;;;;;;15.00;7.20;;;;;;;10.07;98.00;100033.93;102747;1278;24090;-62
2022/10/27 00:50:04;;;;;;;11.30;6.60;;;;;;;10.07;97.87;100034.08;102814;1278;23998;-61
2022/10/27 00:52:42;;;;;;;15.80;7.30;;;;;;;10.06;97.94;100038.37;102519;1286;22505;-62
2022/10/27 00:55:30;;;;;;;22.00;8.60;;;;;;;10.04;97.88;100038.38;102817;1286;25800;-61
2022/10/27 00:57:57;;;;;;;;;;;;;;;10.04;97.88;100040.11;102668;1307;22462;-61
2022/10/27 01:00:24;;;;;;;12.90;7.00;;;;;;;10.02;97.75;100043.01;102758;1286;23243;-61
2022/10/27 01:02:50;;;;;;;20.50;7.00;;;;;;;9.99;97.75;100044.81;106783;1307;22920;-62
2022/10/27 01:05:20;;;;;;;13.60;6.90;;;;;;;10.01;97.84;100046.96;106932;1295;23421;-62
2022/10/27 01:07:47;;;;;;;11.10;7.00;;;;;;;10.03;97.90;100048.97;106848;1300;23257;-62
2022/10/27 01:10:14;;;;;;;13.00;7.00;;;;;;;10.06;97.84;100054.64;107028;1299;22956;-62
2022/10/27 01:12:41;;;;;;;7.90;6.30;;;;;;;10.06;97.69;100056.61;106875;1300;22220;-62
2022/10/27 01:15:08;;;;;;;;;;;;;;;10.07;97.72;100055.71;106866;1292;22544;-62
2022/10/27 01:17:34;;;;;;;8.90;6.50;;;;;;;10.07;97.70;100058.27;106995;1293;22176;-62
2022/10/27 01:20:01;;;;;;;;;;;;;;;10.06;97.51;100056.56;107104;1291;23267;-62
2022/10/27 01:22:45;;;;;;;10.80;6.60;;;;;;;10.05;97.44;100061.70;106998;1300;22239;-62
2022/10/27 01:25:33;;;;;;;9.40;6.50;;;;;;;10.05;97.42;100060.29;107016;1300;23025;-61
2022/10/27 01:28:25;;;;;;;10.40;6.70;;;;;;;10.05;97.42;100064.22;107000;1293;22196;-63
2022/10/27 01:31:06;;;;;;;9.40;6.40;;;;;;;10.07;97.59;100067.95;106979;1292;22165;-63
2022/10/27 01:33:50;;;;;;;11.50;7.20;;;;;;;10.06;97.43;100067.13;106828;1300;22133;-63
2022/10/27 01:36:28;;;;;;;10.60;6.70;;;;;;;10.06;97.33;100067.93;106973;1300;22203;-62
2022/10/27 01:39:41;;;;;;;11.60;6.80;;;;;;;10.05;97.13;100072.93;106909;1300;22145;-63
2022/10/27 01:42:09;;;;;;;7.10;6.30;;;;;;;10.04;97.10;100070.66;105615;1294;1154919;-62
2022/10/27 01:46:01;;;;;;;11.10;6.20;;;;;;;10.04;97.10;100072.52;99651;1323;544773;-61
2022/10/27 01:48:28;;;;;;;10.50;6.50;;;;;;;10.03;97.11;100073.14;101310;1294;22509;-62
2022/10/27 01:50:55;;;;;;;8.00;5.70;;;;;;;10.04;97.03;100080.95;101489;1322;22504;-61
2022/10/27 01:53:29;;;;;;;9.80;6.30;;;;;;;10.04;96.91;100083.72;105459;1322;22956;-62
2022/10/27 01:56:24;;;;;;;12.70;7.10;;;;;;;10.03;96.89;100082.61;105921;1312;22210;-63
2022/10/27 01:59:06;;;;;;;10.70;6.80;;;;;;;9.98;96.88;100084.36;105321;1313;991913;-62
2022/10/27 02:01:47;;;;;;;11.80;6.90;;;;;;;9.96;96.82;100089.60;106165;1303;22290;-63
2022/10/27 02:04:19;;;;;;;14.00;6.70;;;;;;;9.93;96.77;100091.69;106190;1302;22603;-63
2022/10/27 02:07:10;;;;;;;21.80;6.70;;;;;;;9.89;96.57;100098.45;106120;1312;23040;-63
2022/10/27 02:09:51;;;;;;;10.60;7.10;;;;;;;9.89;96.89;100100.52;106488;1299;22276;-63
2022/10/27 02:12:22;;;;;;;13.10;6.10;;;;;;;9.88;96.85;100103.42;106481;1301;22348;-63
2022/10/27 02:14:50;;;;;;;11.60;7.60;;;;;;;9.87;97.05;100106.33;106450;1309;22341;-63
2022/10/27 02:17:17;;;;;;;13.40;7.10;;;;;;;9.84;96.92;100106.38;106377;1294;22648;-63
2022/10/27 02:19:43;;;;;;;;;;;;;;;9.84;97.09;100110.57;106326;1309;23369;-62
2022/10/27 02:22:10;;;;;;;11.40;6.70;;;;;;;9.83;97.22;100108.98;106426;1309;22968;-63
2022/10/27 02:24:37;;;;;;;;;;;;;;;9.83;97.19;100114.39;106399;1309;22580;-63
2022/10/27 02:27:12;;;;;;;9.10;6.40;;;;;;;9.80;97.28;100115.39;106472;1294;23101;-63
2022/10/27 02:29:41;;;;;;;11.10;6.20;;;;;;;9.77;97.52;100111.80;106448;1294;22152;-62
2022/10/27 02:32:12;;;;;;;13.20;6.70;;;;;;;9.77;97.41;100114.98;106399;1301;23135;-63
2022/10/27 02:34:38;;;;;;;13.20;6.50;;;;;;;9.76;97.75;100114.55;106327;1309;22245;-62
2022/10/27 02:37:05;;;;;;;;;;;;;;;9.76;97.80;100118.13;106390;1304;23334;-62
2022/10/27 02:39:32;;;;;;;10.80;6.30;;;;;;;9.76;97.81;100120.48;106470;1309;22206;-62
2022/10/27 02:41:59;;;;;;;;;;;;;;;9.78;97.91;100120.53;106461;1291;22375;-63
2022/10/27 02:44:25;;;;;;;11.80;6.10;;;;;;;9.79;97.78;100121.27;106477;1309;22129;-62
2022/10/27 02:46:52;;;;;;;;;;;;;;;9.76;97.64;100118.23;106487;1298;22395;-63
2022/10/27 02:49:20;;;;;;;9.70;5.80;;;;;;;9.78;97.93;100121.61;106432;1292;22895;-62
2022/10/27 02:51:46;;;;;;;;;;;;;;;9.80;97.90;100124.27;106483;1302;22465;-63
2022/10/27 02:54:13;;;;;;;9.30;5.40;;;;;;;9.81;97.82;100127.34;106461;1309;22975;-62
2022/10/27 02:56:40;;;;;;;;;;;;;;;9.82;97.83;100125.88;106491;1301;22355;-62
2022/10/27 02:59:06;;;;;;;13.70;7.10;;;;;;;9.83;97.81;100128.79;106470;1297;22206;-62
2022/10/27 03:01:33;;;;;;;;;;;;;;;9.83;97.62;100126.99;106492;1292;22561;-63
2022/10/27 03:04:00;;;;;;;17.00;8.40;;;;;;;9.83;97.65;100128.67;106410;1309;22260;-63
2022/10/27 03:06:27;;;;;;;;;;;;;;;9.81;97.57;100128.03;106488;1296;22372;-62
2022/10/27 03:08:53;;;;;;;12.40;7.80;;;;;;;9.79;97.49;100134.12;106483;1309;22278;-62
2022/10/27 03:11:21;;;;;;;9.20;7.70;;;;;;;9.80;97.47;100135.38;106483;1309;22193;-62
2022/10/27 03:13:47;;;;;;;9.60;6.80;;;;;;;9.81;97.55;100139.70;106481;1308;22115;-62
2022/10/27 03:16:14;;;;;;;;;;;;;;;9.83;97.52;100135.58;106468;1307;23122;-62
2022/10/27 03:18:41;;;;;;;11.20;6.80;;;;;;;9.85;97.60;100136.84;106445;1309;22179;-62
2022/10/27 03:21:07;;;;;;;13.90;9.40;;;;;;;9.88;97.78;100138.50;106489;1299;22295;-62
2022/10/27 03:23:34;;;;;;;;;;;;;;;9.91;97.67;100140.91;106493;1308;23282;-61
2022/10/27 03:26:01;;;;;;;10.70;6.60;;;;;;;9.94;97.53;100142.89;106448;1309;22132;-62
2022/10/27 03:28:34;;;;;;;;;;;;;;;9.92;97.48;100140.16;106437;1309;22448;-61
2022/10/27 03:31:01;;;;;;;8.00;6.30;;;;;;;9.96;96.98;100149.59;106447;1298;22136;-62
2022/10/27 03:33:28;;;;;;;11.20;6.80;;;;;;;9.97;97.26;100147.92;106460;1309;22212;-62
2022/10/27 03:35:54;;;;;;;;;;;;;;;9.99;97.42;100146.67;106453;1309;22431;-61
2022/10/27 03:38:21;;;;;;;11.10;6.20;;;;;;;10.02;97.14;100149.95;106412;1294;22146;-62
2022/10/27 03:40:48;;;;;;;;;;;;;;;10.04;97.18;100154.95;106508;1307;22508;-62
2022/10/27 03:43:14;;;;;;;11.40;6.50;;;;;;;10.05;97.03;100156.83;106469;1302;22203;-62
2022/10/27 03:45:41;;;;;;;;;;;;;;;10.06;97.07;100156.64;106476;1309;23354;-62
2022/10/27 03:48:11;;;;;;;10.40;7.10;;;;;;;10.07;96.94;100159.02;106482;1309;22207;-61
2022/10/27 03:50:38;;;;;;;10.60;7.00;;;;;;;10.08;96.86;100160.29;106418;1301;22270;-62
2022/10/27 03:53:05;;;;;;;11.00;7.50;;;;;;;10.10;96.94;100158.63;106422;1309;22246;-62
2022/10/27 03:55:31;;;;;;;;;;;;;;;10.11;96.79;100156.61;106459;1293;22353;-62
2022/10/27 03:57:58;;;;;;;8.80;7.50;;;;;;;10.09;96.60;100161.60;106476;1308;22156;-63
2022/10/27 04:00:27;;;;;;;;;;;;;;;10.07;96.76;100155.73;106478;1301;22344;-62
2022/10/27 04:02:54;;;;;;;16.00;8.40;;;;;;;10.07;96.75;100161.56;106417;1285;22259;-62
2022/10/27 04:05:21;;;;;;;17.40;7.30;;;;;;;10.07;96.80;100161.08;106466;1301;22236;-62
2022/10/27 04:07:48;;;;;;;15.80;7.40;;;;;;;10.07;96.91;100164.62;106456;1301;22242;-62
2022/10/27 04:10:15;;;;;;;;;;;;;;;10.09;96.89;100163.08;106487;1307;23218;-62
2022/10/27 04:12:49;;;;;;;11.90;7.50;;;;;;;10.10;96.86;100170.83;106471;1300;22193;-62
2022/10/27 04:15:16;;;;;;;16.70;8.20;;;;;;;10.11;96.70;100170.06;106456;1309;22220;-62
2022/10/27 04:17:43;;;;;;;10.00;7.30;;;;;;;10.10;96.74;100170.60;106508;1293;22312;-63
2022/10/27 04:20:11;;;;;;;16.00;8.20;;;;;;;10.11;96.79;100168.94;106448;1309;23330;-63
2022/10/27 04:22:37;;;;;;;15.50;7.70;;;;;;;10.13;96.63;100171.15;106469;1301;22326;-63
2022/10/27 04:25:04;;;;;;;;;;;;;;;10.14;96.83;100172.75;106421;1309;22429;-63
2022/10/27 04:27:31;;;;;;;11.70;8.10;;;;;;;10.15;96.78;100170.23;106444;1301;23416;-63
2022/10/27 04:29:58;;;;;;;;;;;;;;;10.16;96.67;100176.58;106466;1309;22383;-63
2022/10/27 04:32:24;;;;;;;11.20;8.60;;;;;;;10.16;96.68;100175.95;106453;1306;22614;-63
2022/10/27 04:34:51;;;;;;;;;;;;;;;10.16;96.55;100175.80;106444;1287;22382;-63
2022/10/27 04:37:18;;;;;;;19.80;10.00;;;;;;;10.15;96.56;100178.02;106430;1309;22956;-63
2022/10/27 04:39:44;;;;;;;;;;;;;;;10.16;96.63;100183.05;106484;1309;22432;-63
2022/10/27 04:42:11;;;;;;;12.60;8.00;;;;;;;10.16;96.42;100185.50;106495;1309;22226;-63
2022/10/27 04:44:38;;;;;;;;;;;;;;;10.15;96.51;100185.10;106434;1309;22612;-62
2022/10/27 04:47:04;;;;;;;14.90;8.30;;;;;;;10.16;96.38;100186.85;106468;1309;22258;-63
2022/10/27 04:49:31;;;;;;;;;;;;;;;10.15;96.29;100189.84;106481;1292;22523;-63
2022/10/27 04:51:58;;;;;;;11.30;6.90;;;;;;;10.15;96.25;100191.78;106454;1301;22190;-63
2022/10/27 04:54:24;;;;;;;;;;;;;;;10.13;96.08;100194.61;106485;1309;22348;-62
2022/10/27 04:56:51;;;;;;;12.00;6.90;;;;;;;10.10;95.87;100196.84;106471;1308;22167;-63
2022/10/27 04:59:18;;;;;;;;;;;;;;;10.07;95.84;100200.02;106523;1297;23185;-64
2022/10/27 05:01:44;;;;;;;12.10;6.90;;;;;;;10.08;95.97;100207.38;106422;1309;23226;-63
2022/10/27 05:04:11;;;;;;;13.20;7.20;;;;;;;10.06;95.90;100206.90;106471;1309;24519;-64
2022/10/27 05:06:38;;;;;;;;;;;;;;;10.04;95.69;100208.44;103806;1287;22713;-63
2022/10/27 05:09:05;;;;;;;7.90;5.60;;;;;;;10.04;95.80;100211.64;101958;1311;22586;-63
2022/10/27 05:11:31;;;;;;;13.10;7.20;;;;;;;10.03;95.75;100214.33;102044;1288;22616;-63
2022/10/27 05:13:58;;;;;;;;;;;;;;;10.02;95.75;100211.16;102043;1301;22478;-63
2022/10/27 05:16:25;;;;;;;12.60;7.40;;;;;;;10.02;95.67;100214.80;101961;1294;24347;-62
2022/10/27 05:18:52;;;;;;;;;;;;;;;10.02;95.76;100214.69;102461;1289;22461;-63
2022/10/27 05:21:18;;;;;;;22.80;12.60;;;;;;;10.02;95.56;100214.89;102396;1285;25328;-63
2022/10/27 05:23:45;;;;;;;;;;;;;;;10.03;95.65;100220.37;102453;1289;22457;-63
2022/10/27 05:26:13;;;;;;;15.60;8.80;;;;;;;10.01;95.45;100217.71;102309;1307;25313;-62
2022/10/27 05:28:42;;;;;;;;;;;;;;;10.00;95.66;100216.44;102478;1298;22476;-63
2022/10/27 05:31:09;;;;;;;13.20;7.50;;;;;;;10.02;95.67;100222.31;106400;1298;22823;-64
2022/10/27 05:33:36;;;;;;;;;;;;;;;9.99;95.43;100222.67;106537;1296;22440;-63
2022/10/27 05:36:03;;;;;;;11.10;6.60;;;;;;;9.99;95.59;100230.94;106540;1299;22194;-63
2022/10/27 05:38:30;;;;;;;14.70;6.50;;;;;;;9.97;95.43;100231.21;106675;1306;22241;-63
2022/10/27 05:40:56;;;;;;;;;;;;;;;9.96;95.47;100233.66;106711;1306;22334;-64
2022/10/27 05:43:23;;;;;;;8.10;5.70;;;;;;;9.97;95.24;100240.36;106602;1299;22130;-64
2022/10/27 05:45:50;;;;;;;9.80;6.80;;;;;;;9.97;95.31;100244.40;106572;1298;22157;-64
2022/10/27 05:48:17;;;;;;;17.60;6.90;;;;;;;9.97;95.21;100246.21;106529;1297;22424;-64
2022/10/27 05:50:44;;;;;;;;;;;;;;;9.97;94.89;100243.04;106585;1291;23159;-64
2022/10/27 05:53:11;;;;;;;10.30;5.90;;;;;;;9.95;94.95;100242.80;106597;1299;23446;-64
2022/10/27 05:55:37;;;;;;;;;;;;;;;9.96;94.85;100244.70;106625;1290;23220;-64
2022/10/27 05:58:05;;;;;;;11.60;5.90;;;;;;;9.96;94.89;100253.95;106577;1297;22255;-64
2022/10/27 06:00:34;;;;;;;146.20;91.10;;;;;;;9.95;94.88;100253.36;106653;1306;23107;-63
2022/10/27 06:03:02;;;;;;;25.20;16.40;;;;;;;9.96;94.70;100257.70;106707;1303;22130;-64
2022/10/27 06:05:29;;;;;;;14.70;9.50;;;;;;;9.96;94.44;100257.82;106617;1291;23353;-65
2022/10/27 06:07:56;;;;;;;11.50;7.00;;;;;;;9.96;94.25;100265.17;106713;1306;22196;-64
2022/10/27 06:10:23;;;;;;;9.10;6.50;;;;;;;9.94;94.13;100265.04;106703;1289;22135;-64
2022/10/27 06:12:49;;;;;;;9.40;6.50;;;;;;;9.93;94.39;100266.98;106730;1305;23346;-64
2022/10/27 06:15:16;;;;;;;8.20;6.50;;;;;;;9.97;94.30;100272.32;106677;1306;22156;-62
2022/10/27 06:17:43;;;;;;;;;;;;;;;9.99;94.31;100277.27;106734;1281;22376;-64
2022/10/27 06:20:10;;;;;;;10.20;6.70;;;;;;;9.99;94.13;100280.11;106634;1304;23114;-64
2022/10/27 06:22:37;;;;;;;9.80;6.60;;;;;;;9.98;94.23;100283.84;106680;1304;23079;-63
2022/10/27 06:25:04;;;;;;;;;;;;;;;9.99;94.13;100287.30;106777;1305;22586;-64
2022/10/27 06:27:30;;;;;;;9.30;5.80;;;;;;;9.99;93.99;100283.25;106707;1287;22142;-65
2022/10/27 06:29:57;;;;;;;;;;;;;;;9.97;93.94;100289.27;106697;1298;22421;-64
2022/10/27 06:32:24;;;;;;;12.60;6.50;;;;;;;9.97;93.83;100291.02;106696;1305;22314;-64
2022/10/27 06:34:55;;;;;;;7.80;5.40;;;;;;;9.96;93.75;100289.90;106712;1289;22321;-64
2022/10/27 06:37:22;;;;;;;11.80;5.50;;;;;;;9.96;93.56;100291.30;106700;1297;22112;-64
2022/10/27 06:39:49;;;;;;;;;;;;;;;9.95;93.31;100294.02;106754;1306;23566;-65
2022/10/27 06:42:15;;;;;;;8.40;5.90;;;;;;;9.90;92.88;100295.71;106797;1304;22193;-65
2022/10/27 06:44:50;;;;;;;10.00;6.30;;;;;;;9.89;93.02;100302.59;106694;1306;22230;-64
2022/10/27 06:47:16;;;;;;;12.50;6.70;;;;;;;9.90;92.91;100303.80;106599;1305;22168;-64
2022/10/27 06:49:43;;;;;;;;;;;;;;;9.91;93.02;100305.63;106683;1305;22404;-63
2022/10/27 06:52:10;;;;;;;9.90;5.30;;;;;;;9.93;92.94;100303.96;106637;1296;22139;-63
2022/10/27 06:54:36;;;;;;;;;;;;;;;9.96;92.90;100309.23;106632;1295;22448;-61
2022/10/27 06:57:03;;;;;;;27.20;16.40;;;;;;;9.94;92.36;100310.55;106631;1296;22332;-62
2022/10/27 06:59:30;;;;;;;;;;;;;;;9.90;92.50;100313.77;106648;1291;22423;-62
2022/10/27 07:01:56;;;;;;;10.90;6.30;;;;;;;9.90;92.55;100312.47;106600;1290;22225;-64
2022/10/27 07:04:23;;;;;;;10.50;5.70;;;;;;;9.86;92.43;100312.15;106589;1305;22296;-64
2022/10/27 07:06:50;;;;;;;;;;;;;;;9.84;92.44;100316.52;106607;1291;23207;-63
2022/10/27 07:09:17;;;;;;;9.80;6.30;;;;;;;9.82;92.55;100322.60;106583;1291;22988;-64
2022/10/27 07:11:43;;;;;;;;;;;;;;;9.80;92.65;100322.40;106602;1299;22348;-63
2022/10/27 07:14:10;;;;;;;9.70;5.20;;;;;;;9.80;92.91;100322.52;106624;1305;22164;-63
2022/10/27 07:16:37;;;;;;;7.50;5.60;;;;;;;9.79;93.00;100318.16;106561;1305;22164;-63
2022/10/27 07:19:04;;;;;;;;;;;;;;;9.85;93.12;100324.89;106603;1291;23193;-63
2022/10/27 07:21:30;;;;;;;9.50;6.40;;;;;;;9.87;93.11;100327.04;106623;1296;22185;-63
2022/10/27 07:23:59;;;;;;;12.90;6.60;;;;;;;9.90;92.99;100334.79;106660;1280;22167;-63
2022/10/27 07:26:26;;;;;;;9.90;5.20;;;;;;;9.90;92.83;100328.09;106605;1291;22180;-62
2022/10/27 07:28:53;;;;;;;;;;;;;;;9.91;93.00;100329.42;106691;1301;22358;-62
2022/10/27 07:31:19;;;;;;;13.30;7.30;;;;;;;9.92;92.95;100330.44;106592;1282;22202;-62
2022/10/27 07:33:46;;;;;;;;;;;;;;;9.94;92.73;100335.98;106584;1287;22395;-63
2022/10/27 07:36:13;;;;;;;13.00;6.80;;;;;;;9.96;93.00;100337.33;106694;1291;22227;-63
2022/10/27 07:38:39;;;;;;;9.50;7.60;;;;;;;9.96;92.73;100341.84;106633;1299;22148;-63
2022/10/27 07:41:06;;;;;;;;;;;;;;;9.96;92.69;100341.89;106669;1298;22455;-63
2022/10/27 07:43:34;;;;;;;12.60;8.50;;;;;;;9.97;92.62;100340.86;106582;1306;22509;-62
2022/10/27 07:46:00;;;;;;;18.80;12.30;;;;;;;9.96;92.74;100335.19;105264;1288;22494;-61
2022/10/27 07:48:27;;;;;;;;;;;;;;;10.01;92.87;100342.84;102522;1289;25359;-61
2022/10/27 07:50:54;;;;;;;13.60;7.20;;;;;;;10.03;92.76;100340.98;102495;1294;22489;-61
2022/10/27 07:53:21;;;;;;;9.10;6.90;;;;;;;10.05;92.47;100342.23;102591;1289;22628;-62
2022/10/27 07:55:47;;;;;;;;;;;;;;;10.05;92.29;100346.27;102516;1305;24311;-61
2022/10/27 07:58:15;;;;;;;9.10;6.30;;;;;;;10.06;92.61;100344.29;102548;1298;25374;-63
2022/10/27 08:00:43;;;;;;;9.70;5.70;;;;;;;10.07;92.23;100346.80;102429;1295;22495;-63
2022/10/27 08:03:21;;;;;;;13.20;7.00;;;;;;;10.04;92.37;100347.38;102462;1291;22653;-62
2022/10/27 08:05:48;;;;;;;30.60;20.80;;;;;;;10.06;92.50;100345.69;102426;1287;22471;-62
2022/10/27 08:08:15;;;;;;;14.90;10.80;;;;;;;10.10;92.54;100346.45;102387;1289;22949;-62
2022/10/27 08:10:42;;;;;;;14.30;7.50;;;;;;;10.16;92.70;100348.89;106506;1313;22606;-60
2022/10/27 08:13:09;;;;;;;11.10;7.20;;;;;;;10.21;92.47;100354.77;106735;1288;22292;-60
2022/10/27 08:15:36;;;;;;;;;;;;;;;10.23;92.22;100350.23;106710;1301;22342;-60
2022/10/27 08:18:03;;;;;;;12.90;6.60;;;;;;;10.28;92.25;100352.79;106681;1295;22127;-61
2022/10/27 08:20:31;;;;;;;11.10;6.40;;;;;;;10.34;92.06;100352.28;106764;1290;22094;-62
2022/10/27 08:22:59;;;;;;;9.50;6.00;;;;;;;10.37;92.02;100355.20;106728;1306;22140;-61
2022/10/27 08:25:26;;;;;;;8.80;6.20;;;;;;;10.42;91.88;100354.47;106783;1294;22125;-62
2022/10/27 08:27:53;;;;;;;7.70;5.80;;;;;;;10.48;91.70;100357.64;106794;1295;22197;-61
2022/10/27 08:30:20;;;;;;;11.50;6.30;;;;;;;10.53;91.57;100355.19;106722;1297;22135;-63
2022/10/27 08:32:47;;;;;;;8.30;6.10;;;;;;;10.55;91.12;100354.48;106684;1288;22176;-62
2022/10/27 08:35:15;;;;;;;10.10;5.60;;;;;;;10.60;90.96;100356.98;106682;1305;22125;-62
2022/10/27 08:37:42;;;;;;;8.30;6.10;;;;;;;10.65;90.72;100364.46;106767;1296;22178;-62
2022/10/27 08:40:09;;;;;;;;;;;;;;;10.70;90.88;100365.23;106755;1306;22317;-61
2022/10/27 08:42:38;;;;;;;8.00;5.40;;;;;;;10.77;90.69;100366.63;106728;1298;22145;-61
2022/10/27 08:45:09;;;;;;;13.30;6.90;;;;;;;10.82;90.40;100370.84;106722;1304;23868;-61
2022/10/27 08:47:36;;;;;;;10.00;6.00;;;;;;;10.88;90.42;100369.92;106679;1304;22173;-61
2022/10/27 08:50:04;;;;;;;8.10;6.10;;;;;;;10.93;90.09;100370.76;106670;1291;22138;-61
2022/10/27 08:52:36;;;;;;;8.90;6.40;;;;;;;10.97;90.01;100374.39;106613;1297;22354;-60
2022/10/27 08:55:12;;;;;;;10.90;6.70;;;;;;;11.03;89.83;100373.46;106615;1306;22951;-61
2022/10/27 08:57:50;;;;;;;11.50;5.80;;;;;;;11.07;89.36;100370.77;106690;1298;22324;-61
2022/10/27 09:00:18;;;;;;;10.40;5.60;;;;;;;11.07;88.85;100370.95;106669;1306;22204;-61
2022/10/27 09:02:48;;;;;;;10.40;6.20;;;;;;;11.05;88.59;100367.80;106674;1289;22930;-61
2022/10/27 09:05:21;;;;;;;12.50;6.80;;;;;;;11.11;88.79;100373.31;106657;1296;22108;-62
2022/10/27 09:07:53;;;;;;;10.70;5.80;;;;;;;11.14;88.94;100375.56;106619;1281;22772;-61
2022/10/27 09:10:58;;;;;;;8.20;5.50;;;;;;;11.19;88.66;100380.69;106672;1287;22204;-62
2022/10/27 09:13:40;;;;;;;12.60;6.10;;;;;;;11.23;88.65;100376.96;106756;1304;24190;-62
2022/10/27 09:16:08;;;;;;;8.70;6.20;;;;;;;11.26;88.55;100379.35;106680;1305;22474;-62
2022/10/27 09:18:43;;;;;;;17.90;12.50;;;;;;;11.29;88.44;100376.36;104786;1295;24285;-61
2022/10/27 09:21:20;;;;;;;11.20;7.60;;;;;;;11.33;88.23;100381.85;102730;1285;25269;-59
2022/10/27 09:23:47;;;;;;;;;;;;;;;11.35;87.74;100382.45;106546;1288;22476;-61
2022/10/27 09:26:14;;;;;;;8.60;5.20;;;;;;;11.36;87.64;100383.82;106952;1303;22949;-61
2022/10/27 09:28:48;;;;;;;;;;;;;;;11.36;87.31;100385.52;106991;1300;22363;-61
2022/10/27 09:31:21;;;;;;;13.20;8.00;;;;;;;11.34;87.28;100384.06;106865;1285;22342;-61
2022/10/27 09:33:54;;;;;;;11.10;5.60;;;;;;;11.33;87.12;100388.41;106867;1293;22183;-61
2022/10/27 09:36:20;;;;;;;11.20;6.20;;;;;;;11.33;87.18;100389.23;106885;1302;22243;-61
2022/10/27 09:38:47;;;;;;;;;;;;;;;11.34;87.11;100388.59;106744;1295;23151;-61
2022/10/27 09:41:14;;;;;;;13.70;5.70;;;;;;;11.34;86.69;100392.04;106936;1286;22276;-61
2022/10/27 09:43:40;;;;;;;;;;;;;;;11.35;86.35;100392.36;106791;1300;22368;-61
2022/10/27 09:46:24;;;;;;;10.10;5.20;;;;;;;11.33;86.48;100392.34;106883;1302;22194;-61
2022/10/27 09:48:51;;;;;;;8.20;5.60;;;;;;;11.35;86.83;100391.65;106912;1303;22149;-61
2022/10/27 09:51:21;;;;;;;8.00;5.10;;;;;;;11.38;86.67;100387.14;106873;1300;22173;-60
2022/10/27 09:53:51;;;;;;;9.70;5.00;;;;;;;11.41;86.65;100391.50;106829;1302;23003;-61
2022/10/27 09:56:19;;;;;;;11.40;5.30;;;;;;;11.45;86.68;100387.39;106899;1303;22334;-61
2022/10/27 09:58:49;;;;;;;9.60;5.10;;;;;;;11.51;86.43;100388.16;106919;1299;22145;-59
2022/10/27 10:01:16;;;;;;;11.60;5.30;;;;;;;11.54;86.22;100383.30;106853;1300;22882;-60
2022/10/27 10:04:04;;;;;;;15.10;6.40;;;;;;;11.56;85.62;100385.48;106887;1285;22157;-60
2022/10/27 10:06:37;;;;;;;13.00;6.60;;;;;;;11.58;85.51;100386.77;106800;1303;22132;-60
2022/10/27 10:09:42;;;;;;;11.10;5.40;;;;;;;11.60;85.20;100385.30;106817;1302;23292;-61
2022/10/27 10:12:23;;;;;;;8.30;5.30;;;;;;;11.62;84.82;100383.95;106461;1308;22344;-60
2022/10/27 10:14:50;;;;;;;7.60;5.30;;;;;;;11.63;84.87;100386.92;106436;1298;22255;-60
2022/10/27 10:17:25;;;;;;;11.20;5.70;;;;;;;11.66;85.06;100385.10;106490;1291;22391;-61
2022/10/27 10:19:53;;;;;;;7.60;5.00;;;;;;;11.72;85.05;100389.53;106451;1305;22905;-61
2022/10/27 10:22:27;;;;;;;7.30;4.70;;;;;;;11.76;84.99;100395.27;106441;1302;22273;-61
2022/10/27 10:24:54;;;;;;;61.70;38.10;;;;;;;11.80;84.89;100389.56;106392;1308;22930;-62
2022/10/27 10:27:32;;;;;;;18.60;11.70;;;;;;;11.85;84.71;100388.95;106334;1306;22185;-60
2022/10/27 10:30:03;;;;;;;11.00;7.30;;;;;;;11.90;84.12;100394.49;106429;1293;22295;-59
2022/10/27 10:32:34;;;;;;;10.90;6.50;;;;;;;11.92;83.81;100392.09;106499;1309;22963;-60
2022/10/27 10:35:01;;;;;;;11.90;6.40;;;;;;;11.95;83.92;100388.88;106436;1305;22302;-60
2022/10/27 10:37:29;;;;;;;14.10;7.40;;;;;;;11.98;84.08;100389.30;106268;1313;22177;-61
2022/10/27 10:40:13;;;;;;;9.90;8.10;;;;;;;12.03;83.80;100389.55;106434;1297;23369;-60
2022/10/27 10:42:43;;;;;;;16.00;9.00;;;;;;;12.06;83.32;100386.59;106575;1303;22118;-61
2022/10/27 10:45:20;;;;;;;20.30;13.20;;;;;;;12.07;83.28;100382.41;106785;1300;22924;-60
2022/10/27 10:47:58;;;;;;;23.90;14.50;;;;;;;12.09;82.83;100382.30;106993;1300;22129;-60
2022/10/27 10:50:26;;;;;;;20.70;14.20;;;;;;;12.07;82.34;100377.94;106860;1306;22211;-60
2022/10/27 10:52:54;;;;;;;25.40;14.70;;;;;;;12.11;82.65;100377.12;106800;1301;22370;-60
2022/10/27 10:55:34;;;;;;;16.00;11.50;;;;;;;12.13;82.60;100379.22;106931;1306;22125;-61
2022/10/27 10:58:01;;;;;;;16.90;11.20;;;;;;;12.16;82.35;100380.54;106963;1304;23433;-61
2022/10/27 11:00:28;;;;;;;14.10;9.50;;;;;;;12.20;82.26;100382.19;106914;1283;22153;-60
2022/10/27 11:02:59;;;;;;;12.90;8.70;;;;;;;12.24;81.93;100378.44;106928;1298;22254;-61
2022/10/27 11:05:33;;;;;;;14.50;7.40;;;;;;;12.26;81.56;100382.90;106383;1286;22495;-60
2022/10/27 11:08:00;;;;;;;22.40;10.30;;;;;;;12.28;81.52;100379.20;106866;1306;22214;-61
2022/10/27 11:10:28;;;;;;;16.90;10.20;;;;;;;12.31;81.28;100382.11;106856;1306;22197;-60
2022/10/27 11:13:16;;;;;;;20.10;10.70;;;;;;;12.34;81.29;100384.13;106980;1284;22164;-60
2022/10/27 11:15:59;;;;;;;19.60;10.40;;;;;;;12.39;81.21;100382.02;106937;1306;22085;-60
2022/10/27 11:18:35;;;;;;;12.00;7.60;;;;;;;12.44;81.03;100376.50;106913;1296;22170;-60
2022/10/27 11:21:20;;;;;;;15.60;8.20;;;;;;;12.45;80.66;100372.05;106957;1306;23243;-60
2022/10/27 11:23:57;;;;;;;19.50;9.60;;;;;;;12.52;80.34;100376.42;106959;1288;22314;-60
2022/10/27 11:26:30;;;;;;;22.00;13.30;;;;;;;12.55;80.18;100376.30;106781;1292;22259;-60
2022/10/27 11:29:17;;;;;;;28.60;15.20;;;;;;;12.57;79.99;100377.31;106818;1304;22236;-60
2022/10/27 11:31:58;;;;;;;33.40;15.80;;;;;;;12.60;79.67;100382.11;106810;1292;22198;-60
2022/10/27 11:35:05;;;;;;;28.40;14.50;;;;;;;12.59;79.09;100383.96;106836;1304;22118;-60
2022/10/27 11:38:03;;;;;;;24.70;11.90;;;;;;;12.63;78.29;100399.67;106336;1299;22162;-60
2022/10/27 11:40:41;;;;;;;45.00;21.60;;;;;;;12.62;78.04;100400.37;106271;1310;22417;-59
2022/10/27 11:43:28;;;;;;;39.70;20.30;;;;;;;12.62;77.98;100398.83;106290;1309;22185;-60